Decoded Metar for PAOU (NELSON LAGOON in AK, USA) (IATA:N/A) | Meteo·Mobile Aviation Weather
aviador You're here:

PAOU Decoded Metar

NELSON LAGOON in AK, USA
Report Time2018-12-16 03:56:00
UTC Time2018-12-16 04:09:09
Flight Rules mvfr MVFR
Wind360° at 21 Gusting to 27 kt
W.Decomp.*RWY 26: 1.8 kt HW 20.9 kt RCW
Visibility9999 m
Phenomena:Light Snow
Clouds:Overcast 024 Hf
Expected CloudBase > 1,600 ft AGL from Temp-Dew spread
Ceiling2,400 ft
Temp-3°C (ISA -18)
Dew Point-7°C (74% RH)
AAT-13.4°C
QNH997 hPa
Density Alt-1,598 ft
Elevation13 ft
Report Wrong Elevation
Raw Report
PAOU 160356Z AUTO 36021G27KT 8SM -SN OVC024 M03/M07 A2943 RMK AO2
PK WND 36028/0345 SLP966 P0000 T10331072 FZRANO=

Extra information for PAOU:More info

Metar Taf Metar & Taf Last 4 Metars F.Rules Stats Wind Profile Meteogram Temp Stats Airport Information Weather charts Add Link Nearby VenuesMetar ALERT Operation Metar Decoded Social comments

AIRNAV info for PAOU